Time;durP1;ratioP1;P1;durP2;ratioP2;P2;SDS_P1;SDS_P2;PMS_P1;PMS_P2;Temp;Humidity;BMP_temperature;BMP_pressure;BME280_temperature;BME280_humidity;BME280_pressure;Samples;Min_cycle;Max_cycle;Signal;HPM_P1;HPM_P2
2021/06/01 00:02:14;;;;;;;7.10;6.30;;;;;;;23.84;18.63;95685.22;4967568;28;20034;-69
2021/06/01 00:04:40;;;;;;;7.93;7.20;;;;;;;23.83;18.95;95684.41;4961103;28;20459;-69
2021/06/01 00:07:05;;;;;;;6.95;6.35;;;;;;;23.83;19.05;95683.63;4947443;28;20505;-69
2021/06/01 00:09:30;;;;;;;7.28;6.57;;;;;;;23.81;18.66;95681.25;4960741;28;20035;-69
2021/06/01 00:11:56;;;;;;;7.40;6.70;;;;;;;23.82;18.94;95680.00;4964388;28;20122;-69
2021/06/01 00:14:21;;;;;;;7.07;6.43;;;;;;;23.81;18.70;95677.59;4965585;28;20090;-69
2021/06/01 00:16:47;;;;;;;7.32;6.68;;;;;;;23.79;18.95;95678.03;4958236;28;20023;-69
2021/06/01 00:19:13;;;;;;;7.22;6.63;;;;;;;23.81;18.96;95669.09;4963280;28;20400;-69
2021/06/01 00:21:39;;;;;;;7.30;6.60;;;;;;;23.78;19.10;95679.28;4967930;28;20046;-69
2021/06/01 00:24:05;;;;;;;6.95;6.35;;;;;;;23.77;19.07;95680.53;4972541;28;20066;-68
2021/06/01 00:26:30;;;;;;;6.57;5.97;;;;;;;23.75;19.01;95672.47;4966446;28;20042;-68
2021/06/01 00:28:56;;;;;;;7.15;6.45;;;;;;;23.74;18.76;95676.53;4997148;28;20055;-69
2021/06/01 00:31:21;;;;;;;7.72;7.03;;;;;;;23.71;19.05;95677.44;4982006;28;20050;-68
2021/06/01 00:33:47;;;;;;;7.22;6.53;;;;;;;23.71;18.73;95671.78;4961645;28;20783;-69
2021/06/01 00:36:12;;;;;;;6.95;6.30;;;;;;;23.72;18.65;95678.22;4966987;28;20442;-69
2021/06/01 00:38:37;;;;;;;7.00;6.40;;;;;;;23.73;18.53;95672.13;4959163;28;20107;-69
2021/06/01 00:41:04;;;;;;;6.93;6.32;;;;;;;23.72;18.82;95667.69;4965036;28;20042;-69
2021/06/01 00:43:29;;;;;;;7.47;6.78;;;;;;;23.72;18.56;95673.34;4960292;28;20403;-69
2021/06/01 00:45:54;;;;;;;6.93;6.32;;;;;;;23.71;19.07;95677.44;4964068;28;20035;-69
2021/06/01 00:48:20;;;;;;;7.50;6.80;;;;;;;23.70;19.03;95680.69;4964727;28;20039;-69
2021/06/01 00:50:45;;;;;;;7.50;6.80;;;;;;;23.69;18.63;95667.78;4966232;28;20026;-69
2021/06/01 00:53:11;;;;;;;7.70;7.00;;;;;;;23.68;18.80;95666.19;4966511;28;20042;-69
2021/06/01 00:55:36;;;;;;;8.02;7.32;;;;;;;23.67;18.83;95668.22;4966192;28;20034;-69
2021/06/01 00:58:02;;;;;;;7.63;6.85;;;;;;;23.64;18.81;95659.81;4966140;28;20022;-69
2021/06/01 01:02:59;;;;;;;8.18;7.35;;;;;;;23.64;18.83;95668.31;4965417;28;20044;-69
2021/06/01 01:05:30;;;;;;;8.55;7.72;;;;;;;23.61;18.76;95664.31;4966334;28;20031;-69
2021/06/01 01:08:32;;;;;;;7.90;7.10;;;;;;;23.55;18.70;95668.91;4965020;28;20035;-69
2021/06/01 01:11:16;;;;;;;8.00;7.20;;;;;;;23.52;19.12;95664.94;4960485;28;20065;-69
2021/06/01 01:14:20;;;;;;;8.18;7.43;;;;;;;23.46;18.96;95666.69;4971797;28;20041;-70
2021/06/01 01:16:56;;;;;;;8.48;7.68;;;;;;;23.39;19.26;95664.78;4975763;28;20061;-69
2021/06/01 01:19:53;;;;;;;18.60;8.02;;;;;;;23.37;18.95;95661.59;4968778;28;20125;-68
2021/06/01 01:22:18;;;;;;;9.63;8.05;;;;;;;23.42;18.83;95663.91;4971836;28;20393;-68
2021/06/01 01:25:17;;;;;;;7.85;7.10;;;;;;;23.41;18.79;95659.50;4957777;28;20023;-68
2021/06/01 01:28:03;;;;;;;7.65;6.85;;;;;;;23.42;19.08;95655.41;4977443;28;20100;-68
2021/06/01 01:30:50;;;;;;;7.93;6.97;;;;;;;23.37;19.13;95653.13;4968105;28;20038;-68
2021/06/01 01:33:16;;;;;;;8.10;7.28;;;;;;;23.40;18.98;95662.72;4971799;28;20714;-68
2021/06/01 01:35:42;;;;;;;7.03;6.43;;;;;;;23.36;18.89;95665.66;4964424;28;20066;-69
2021/06/01 01:38:07;;;;;;;7.35;6.55;;;;;;;23.33;19.01;95662.91;4963828;28;20031;-68
2021/06/01 01:40:33;;;;;;;7.40;6.70;;;;;;;23.34;19.32;95653.19;4957130;28;20045;-69
2021/06/01 01:43:08;;;;;;;7.70;6.90;;;;;;;23.33;19.15;95651.59;4977366;28;20089;-70
2021/06/01 01:45:35;;;;;;;18.20;16.40;;;;;;;23.38;18.89;95656.75;4966452;28;20094;-68
2021/06/01 01:50:47;;;;;;;12.30;9.50;;;;;;;23.38;18.88;95659.56;4969384;28;20068;-68
2021/06/01 01:53:16;;;;;;;18.02;14.77;;;;;;;23.38;19.21;95649.03;4970458;28;20037;-67
2021/06/01 01:55:45;;;;;;;;;;;;;;;23.39;18.90;95656.28;4957678;28;20069;-68
2021/06/01 01:58:11;;;;;;;31.55;26.95;;;;;;;23.41;19.23;95653.03;4971202;28;19925;-68
2021/06/01 02:00:36;;;;;;;34.13;29.02;;;;;;;23.40;19.08;95648.59;4955027;28;20035;-67
2021/06/01 02:03:01;;;;;;;30.20;26.88;;;;;;;23.39;19.12;95647.81;4969643;28;20034;-68
2021/06/01 02:05:27;;;;;;;32.47;27.45;;;;;;;23.43;19.24;95650.56;4945818;28;20272;-68
2021/06/01 02:07:52;;;;;;;32.38;26.55;;;;;;;23.46;19.22;95646.88;4954074;28;20031;-67
2021/06/01 02:10:18;;;;;;;27.33;23.70;;;;;;;23.42;18.66;95652.56;4953806;28;20057;-67
2021/06/01 02:12:43;;;;;;;27.00;23.48;;;;;;;23.41;18.95;95639.69;4970897;28;20043;-68
2021/06/01 02:15:09;;;;;;;23.13;20.30;;;;;;;23.41;18.75;95645.34;4970102;28;20034;-67
2021/06/01 02:17:35;;;;;;;23.15;20.40;;;;;;;23.40;18.88;95657.06;4966651;28;20043;-67
2021/06/01 02:20:00;;;;;;;21.45;19.15;;;;;;;23.40;19.22;95654.25;4972561;28;20035;-67
2021/06/01 02:25:38;;;;;;;22.42;18.67;;;;;;;23.27;19.11;95649.28;4971450;28;20062;-67
2021/06/01 02:28:23;;;;;;;21.52;18.40;;;;;;;23.23;19.08;95645.72;4966677;28;20047;-67
2021/06/01 02:30:48;;;;;;;20.70;18.17;;;;;;;23.23;19.26;95648.56;4962557;28;20018;-67
2021/06/01 02:33:14;;;;;;;21.08;18.35;;;;;;;23.23;19.31;95648.56;4966071;28;20038;-67
2021/06/01 02:35:40;;;;;;;19.55;17.02;;;;;;;23.20;19.36;95654.31;4944263;28;20026;-67
2021/06/01 02:38:07;;;;;;;18.83;16.63;;;;;;;23.19;19.31;95656.31;4973576;28;20034;-67
2021/06/01 02:40:33;;;;;;;20.10;16.67;;;;;;;23.22;19.09;95649.81;4974388;28;20038;-67
2021/06/01 02:43:00;;;;;;;17.63;15.82;;;;;;;23.22;18.93;95649.00;4964342;28;20475;-67
2021/06/01 02:45:26;;;;;;;20.67;16.42;;;;;;;23.20;19.02;95646.63;4969790;28;20483;-67
2021/06/01 02:47:51;;;;;;;17.63;15.65;;;;;;;23.18;19.26;95646.25;4972568;28;20031;-67
2021/06/01 02:50:17;;;;;;;17.67;15.23;;;;;;;23.14;19.37;95639.09;4972635;28;20022;-67
2021/06/01 02:52:43;;;;;;;17.48;15.60;;;;;;;23.13;19.34;95640.31;4945068;28;20030;-67
2021/06/01 02:55:10;;;;;;;16.88;15.18;;;;;;;23.10;19.02;95641.97;4972715;28;20027;-67
2021/06/01 02:57:37;;;;;;;17.90;16.00;;;;;;;23.11;19.37;95643.56;4966530;28;20118;-67
2021/06/01 03:00:03;;;;;;;15.85;14.25;;;;;;;23.08;19.03;95642.41;4967289;28;20043;-67
2021/06/01 03:02:29;;;;;;;16.15;14.50;;;;;;;23.07;19.49;95640.81;4972541;28;20557;-67
2021/06/01 03:04:55;;;;;;;15.95;14.25;;;;;;;23.07;19.05;95648.50;4969648;28;20118;-67
2021/06/01 03:07:20;;;;;;;15.85;13.70;;;;;;;23.05;19.34;95643.31;4968843;28;20035;-67
2021/06/01 03:09:46;;;;;;;15.63;13.93;;;;;;;23.06;18.95;95649.75;4962460;28;20362;-67
2021/06/01 03:14:55;;;;;;;16.27;14.55;;;;;;;23.04;19.27;95646.56;4965972;28;20389;-67
2021/06/01 03:17:20;;;;;;;14.85;13.35;;;;;;;23.03;19.39;95644.97;4957904;28;20248;-67
2021/06/01 03:19:46;;;;;;;14.57;13.07;;;;;;;23.03;19.28;95645.75;4973585;28;20038;-67
2021/06/01 03:22:11;;;;;;;14.02;12.63;;;;;;;23.02;18.98;95640.53;4973851;28;20046;-67
2021/06/01 03:24:37;;;;;;;14.05;12.60;;;;;;;22.99;19.46;95639.38;4969436;28;20034;-67
2021/06/01 03:27:03;;;;;;;13.07;11.70;;;;;;;22.98;19.31;95634.97;4965358;28;20472;-67
2021/06/01 03:29:28;;;;;;;12.55;11.30;;;;;;;22.99;18.99;95630.13;4971995;28;20523;-67
2021/06/01 03:31:54;;;;;;;13.68;12.30;;;;;;;23.00;19.01;95640.19;4973121;28;20177;-67
2021/06/01 03:34:19;;;;;;;13.38;11.95;;;;;;;22.97;19.12;95632.59;4972332;28;20358;-67
2021/06/01 03:36:45;;;;;;;12.60;11.30;;;;;;;22.96;19.37;95625.34;4973385;28;20035;-67
2021/06/01 03:39:10;;;;;;;14.32;12.82;;;;;;;22.94;19.34;95635.06;4972889;28;20029;-67
2021/06/01 03:41:36;;;;;;;12.75;11.13;;;;;;;22.94;19.49;95629.41;4973851;28;20034;-67
2021/06/01 03:44:02;;;;;;;12.32;11.07;;;;;;;22.93;19.41;95621.34;4963106;28;20047;-67
2021/06/01 03:46:27;;;;;;;12.45;11.15;;;;;;;22.91;19.02;95624.63;4970285;28;20158;-67
2021/06/01 03:48:53;;;;;;;11.75;10.52;;;;;;;22.92;19.24;95623.38;4960805;28;20035;-67
2021/06/01 03:51:18;;;;;;;12.43;10.50;;;;;;;22.89;19.03;95624.25;4968972;28;20038;-67
2021/06/01 03:53:44;;;;;;;11.98;10.77;;;;;;;22.86;19.43;95625.13;4973145;28;20043;-67
2021/06/01 03:56:09;;;;;;;11.70;10.50;;;;;;;22.85;19.03;95629.19;4969594;28;20029;-67
2021/06/01 03:58:35;;;;;;;10.93;9.82;;;;;;;22.85;19.50;95622.72;4972635;28;20031;-67
2021/06/01 04:01:00;;;;;;;11.68;10.45;;;;;;;22.82;19.04;95630.03;4972872;28;20027;-67
2021/06/01 04:03:25;;;;;;;11.38;10.27;;;;;;;22.82;19.37;95627.19;4973196;28;20468;-67
2021/06/01 04:05:51;;;;;;;11.30;10.10;;;;;;;22.82;19.23;95629.25;4972526;28;20042;-67
2021/06/01 04:08:16;;;;;;;11.05;9.82;;;;;;;22.81;19.53;95628.44;4973147;28;20081;-67
2021/06/01 04:10:42;;;;;;;11.10;9.95;;;;;;;22.80;19.55;95632.47;4968749;28;20038;-67
2021/06/01 04:13:07;;;;;;;11.60;9.95;;;;;;;22.80;19.10;95632.47;4969717;28;20120;-67
2021/06/01 04:15:33;;;;;;;10.63;9.52;;;;;;;22.80;18.90;95632.47;4971169;28;20545;-67
2021/06/01 04:17:58;;;;;;;10.20;9.18;;;;;;;22.77;19.11;95628.50;4955546;28;20038;-67
2021/06/01 04:20:24;;;;;;;10.70;9.70;;;;;;;22.78;19.39;95630.09;4972914;28;20039;-67
2021/06/01 04:22:50;;;;;;;9.70;8.60;;;;;;;22.76;19.17;95626.09;4996382;28;20030;-67
2021/06/01 04:25:15;;;;;;;10.60;9.50;;;;;;;22.75;19.41;95627.38;4960989;28;20042;-67
2021/06/01 04:27:41;;;;;;;10.18;9.00;;;;;;;22.73;19.44;95632.63;4972009;28;20034;-67
2021/06/01 04:30:07;;;;;;;10.65;9.65;;;;;;;22.75;19.50;95630.19;4972583;28;20038;-68
2021/06/01 04:32:33;;;;;;;9.68;8.77;;;;;;;22.73;19.54;95621.34;4972842;28;20041;-67
2021/06/01 04:34:58;;;;;;;10.05;9.10;;;;;;;22.72;19.50;95628.22;4972110;28;20057;-67
2021/06/01 04:37:23;;;;;;;9.98;9.00;;;;;;;22.73;18.99;95630.59;4972447;28;20088;-67
2021/06/01 04:39:49;;;;;;;9.23;8.32;;;;;;;22.72;19.43;95628.22;4971015;28;20031;-68
2021/06/01 04:42:15;;;;;;;9.77;8.77;;;;;;;22.70;19.17;95630.69;4972322;28;20026;-68
2021/06/01 04:44:41;;;;;;;9.30;8.40;;;;;;;22.70;19.17;95630.69;4962810;28;20109;-68
2021/06/01 04:47:06;;;;;;;8.88;7.97;;;;;;;22.69;19.23;95631.91;4967245;28;20054;-68
2021/06/01 04:49:31;;;;;;;8.80;8.00;;;;;;;22.68;19.49;95627.50;4972559;28;20735;-68
2021/06/01 04:51:57;;;;;;;9.15;8.25;;;;;;;22.69;19.64;95632.69;4973689;28;20027;-68
2021/06/01 04:54:22;;;;;;;9.63;8.27;;;;;;;22.70;19.33;95628.66;4972030;28;20031;-68
2021/06/01 04:56:48;;;;;;;8.65;7.85;;;;;;;22.71;19.22;95624.59;4972507;28;20034;-68
2021/06/01 04:59:13;;;;;;;8.10;7.30;;;;;;;22.71;19.36;95626.63;4970984;28;20031;-68
2021/06/01 05:01:39;;;;;;;8.00;7.25;;;;;;;22.73;19.16;95624.94;4972019;28;20057;-68
2021/06/01 05:04:04;;;;;;;8.77;7.22;;;;;;;22.73;19.15;95621.34;4972202;28;20109;-68
2021/06/01 05:06:30;;;;;;;8.50;7.70;;;;;;;22.69;19.58;95620.59;4971542;28;20672;-68
2021/06/01 05:08:55;;;;;;;8.23;7.30;;;;;;;22.69;19.66;95612.13;4981161;28;20038;-68
2021/06/01 05:11:21;;;;;;;8.38;7.53;;;;;;;22.69;19.26;95617.78;4952431;28;20581;-68
2021/06/01 05:13:46;;;;;;;8.20;7.47;;;;;;;22.71;19.59;95616.13;4971601;28;20546;-68
2021/06/01 05:16:13;;;;;;;8.57;7.40;;;;;;;22.70;19.27;95616.56;4967033;28;20074;-68
2021/06/01 05:18:39;;;;;;;8.07;7.13;;;;;;;22.70;19.59;95608.09;4970652;28;20062;-68
2021/06/01 05:21:05;;;;;;;8.32;7.30;;;;;;;22.67;19.20;95606.91;4971113;28;20530;-67
2021/06/01 05:23:30;;;;;;;7.53;6.80;;;;;;;22.66;19.31;95616.63;4968469;28;20035;-67
2021/06/01 05:25:56;;;;;;;8.73;7.85;;;;;;;22.67;19.67;95615.41;4967901;28;20047;-67
2021/06/01 05:28:21;;;;;;;7.45;6.72;;;;;;;22.67;19.62;95614.59;4965711;28;20062;-67
2021/06/01 05:33:33;;;;;;;6.90;6.28;;;;;;;22.65;19.33;95605.75;4967464;28;20046;-67
2021/06/01 05:35:58;;;;;;;7.60;6.53;;;;;;;22.63;19.45;95605.38;4971111;28;20089;-67
2021/06/01 05:38:25;;;;;;;6.85;6.25;;;;;;;22.62;19.75;95610.25;4995634;28;20058;-67
2021/06/01 05:40:51;;;;;;;8.60;7.03;;;;;;;22.60;19.52;95604.25;4971739;28;20399;-67
2021/06/01 05:43:16;;;;;;;7.10;6.40;;;;;;;22.61;19.75;95603.00;4967326;28;20027;-68
2021/06/01 05:45:43;;;;;;;7.10;6.47;;;;;;;22.60;19.62;95610.69;4967137;28;20034;-68
2021/06/01 05:48:08;;;;;;;7.50;6.80;;;;;;;22.64;19.70;95609.81;4967095;28;20424;-68
2021/06/01 05:50:34;;;;;;;6.93;6.22;;;;;;;22.64;19.39;95616.28;4971658;28;20034;-68
2021/06/01 05:53:00;;;;;;;6.95;6.25;;;;;;;22.65;19.44;95612.19;4978619;28;20035;-68
2021/06/01 05:55:26;;;;;;;6.40;5.80;;;;;;;22.68;19.56;95621.84;4969508;28;20035;-68
2021/06/01 05:57:51;;;;;;;6.18;5.60;;;;;;;22.71;19.77;95613.28;4970991;28;20039;-68
2021/06/01 06:00:17;;;;;;;7.18;6.47;;;;;;;22.72;19.82;95616.91;4969462;28;20031;-68
2021/06/01 06:02:43;;;;;;;7.53;6.75;;;;;;;22.70;19.35;95613.72;4971082;28;20038;-68
2021/06/01 06:05:09;;;;;;;7.40;6.70;;;;;;;22.70;19.66;95619.38;4965798;28;20031;-67
2021/06/01 06:07:34;;;;;;;6.60;5.93;;;;;;;22.71;19.75;95615.34;4971508;28;20040;-67
2021/06/01 06:10:00;;;;;;;6.50;5.90;;;;;;;22.72;19.82;95614.06;4971728;28;20027;-67
2021/06/01 06:12:25;;;;;;;6.07;5.43;;;;;;;22.78;19.39;95615.19;4971374;28;20029;-67
2021/06/01 06:14:51;;;;;;;6.50;5.90;;;;;;;22.82;19.40;95617.94;4979389;28;20392;-67
2021/06/01 06:17:43;;;;;;;6.75;6.15;;;;;;;22.79;19.36;95613.94;4971417;28;20372;-68
2021/06/01 06:20:09;;;;;;;6.07;5.47;;;;;;;22.86;19.24;95619.47;4968874;28;20046;-68
2021/06/01 06:22:36;;;;;;;5.95;5.45;;;;;;;22.88;19.29;95617.00;4971761;28;20027;-68
2021/06/01 06:25:03;;;;;;;5.90;5.30;;;;;;;22.89;19.53;95623.47;4971204;28;20404;-68
2021/06/01 06:27:29;;;;;;;6.80;6.20;;;;;;;22.91;19.23;95623.81;4968182;28;20728;-68
2021/06/01 06:29:54;;;;;;;6.25;5.65;;;;;;;22.93;19.23;95622.13;4961650;28;20115;-68
2021/06/01 06:32:20;;;;;;;6.28;5.68;;;;;;;22.96;19.56;95622.50;4969018;28;20086;-68
2021/06/01 06:34:45;;;;;;;6.25;5.65;;;;;;;22.97;19.62;95627.72;4971116;28;20484;-68
2021/06/01 06:37:11;;;;;;;6.53;5.80;;;;;;;22.98;19.24;95622.84;4971567;28;20027;-68
2021/06/01 06:39:36;;;;;;;6.30;5.70;;;;;;;22.97;19.31;95618.47;4974357;28;20445;-68
2021/06/01 06:42:02;;;;;;;6.20;5.60;;;;;;;23.01;19.13;95617.13;4973247;28;20086;-68
2021/06/01 06:44:28;;;;;;;6.18;5.60;;;;;;;23.03;19.63;95616.69;4962391;28;20039;-68
2021/06/01 06:49:52;;;;;;;6.00;5.50;;;;;;;23.07;19.16;95609.72;4972270;28;20043;-68
2021/06/01 06:52:17;;;;;;;5.60;5.10;;;;;;;23.06;19.18;95615.81;4974506;28;20754;-68
2021/06/01 06:54:43;;;;;;;6.00;5.50;;;;;;;23.08;19.45;95613.34;4974355;28;20038;-68
2021/06/01 06:57:08;;;;;;;6.18;5.57;;;;;;;23.09;19.09;95614.97;4973094;28;20031;-68
2021/06/01 06:59:34;;;;;;;5.45;4.95;;;;;;;23.09;19.23;95614.97;4967266;28;20030;-67
2021/06/01 07:01:59;;;;;;;281.50;216.32;;;;;;;23.14;19.36;95617.25;4982670;28;20034;-68
2021/06/01 07:04:25;;;;;;;83.50;67.68;;;;;;;23.19;19.58;95619.56;4974385;28;20038;-68
2021/06/01 07:06:53;;;;;;;20.25;18.10;;;;;;;23.38;19.16;95614.31;4968993;28;20034;-68
2021/06/01 07:09:19;;;;;;;24.75;21.75;;;;;;;23.56;19.18;95611.88;4966888;28;20058;-68
2021/06/01 07:11:44;;;;;;;47.45;39.67;;;;;;;23.64;19.06;95614.53;4965748;28;20554;-68
2021/06/01 07:14:10;;;;;;;53.10;43.83;;;;;;;23.69;19.17;95609.13;4973598;28;20035;-67
2021/06/01 07:16:38;;;;;;;108.88;97.55;;;;;;;23.79;18.65;95615.75;4966219;28;20114;-68
2021/06/01 07:19:04;;;;;;;36.17;32.25;;;;;;;23.80;19.12;95614.53;4971410;28;20102;-67
2021/06/01 07:21:29;;;;;;;47.80;41.15;;;;;;;23.84;19.23;95618.06;4969798;28;20532;-67
2021/06/01 07:23:55;;;;;;;77.13;65.47;;;;;;;23.81;18.79;95610.47;4974085;28;20295;-67
2021/06/01 07:26:20;;;;;;;92.35;75.80;;;;;;;23.80;19.17;95611.69;4974117;28;20034;-69
2021/06/01 07:28:45;;;;;;;98.35;81.80;;;;;;;23.78;18.81;95619.84;4973585;28;20441;-68
2021/06/01 07:31:14;;;;;;;103.15;88.78;;;;;;;23.73;19.30;95609.06;4973695;28;20628;-67
2021/06/01 07:33:39;;;;;;;78.05;67.10;;;;;;;23.75;19.01;95613.03;4971716;28;20555;-67
2021/06/01 07:36:05;;;;;;;37.42;32.20;;;;;;;23.72;18.95;95615.94;4973491;28;20045;-67
2021/06/01 07:38:31;;;;;;;36.72;31.75;;;;;;;23.70;18.38;95610.72;4969968;28;20062;-68
2021/06/01 07:40:56;;;;;;;40.80;35.45;;;;;;;23.59;18.35;95619.50;4973654;28;20116;-69
2021/06/01 07:43:22;;;;;;;37.45;32.45;;;;;;;23.52;17.86;95611.19;4973291;28;20047;-68
2021/06/01 07:45:47;;;;;;;26.38;23.27;;;;;;;23.48;18.19;95618.13;4972220;28;20026;-68
2021/06/01 07:48:12;;;;;;;21.13;18.88;;;;;;;23.40;17.88;95615.47;4971592;28;20034;-68
2021/06/01 07:50:38;;;;;;;23.20;20.55;;;;;;;23.40;18.04;95618.28;4954718;28;20045;-68
2021/06/01 07:53:03;;;;;;;28.30;24.58;;;;;;;23.37;17.96;95613.53;4969591;28;20042;-68
2021/06/01 07:55:29;;;;;;;20.48;17.42;;;;;;;23.34;18.00;95622.88;4973172;28;20492;-68
2021/06/01 07:57:55;;;;;;;22.33;17.05;;;;;;;23.31;17.88;95614.47;4971699;28;20406;-68
2021/06/01 08:00:22;;;;;;;23.25;20.52;;;;;;;23.28;18.43;95628.25;4973297;28;20031;-67
2021/06/01 08:02:47;;;;;;;16.70;8.23;;;;;;;23.28;17.21;95616.94;4973149;28;20058;-68
2021/06/01 08:05:15;;;;;;;14.57;4.95;;;;;;;23.24;16.84;95610.56;4962494;28;20050;-68
2021/06/01 08:07:41;;;;;;;3.90;3.45;;;;;;;23.23;17.34;95608.97;4974041;28;20460;-67
2021/06/01 08:10:07;;;;;;;5.45;4.50;;;;;;;23.13;17.18;95607.19;4979950;28;20046;-67
2021/06/01 08:12:34;;;;;;;5.45;3.85;;;;;;;23.07;17.16;95606.09;4964497;28;20490;-67
2021/06/01 08:15:00;;;;;;;3.85;3.55;;;;;;;23.02;17.20;95603.78;4968607;28;20027;-67
2021/06/01 08:17:25;;;;;;;2.70;2.50;;;;;;;23.00;17.46;95603.44;4961874;28;20073;-67
2021/06/01 08:19:53;;;;;;;6.50;4.30;;;;;;;22.94;17.36;95597.50;4971693;28;20022;-68
2021/06/01 08:24:47;;;;;;;4.10;3.53;;;;;;;22.86;17.24;95601.72;4970276;28;20046;-67
2021/06/01 08:27:13;;;;;;;3.97;3.38;;;;;;;22.83;17.33;95594.88;4972258;28;20039;-68
2021/06/01 08:29:38;;;;;;;5.60;3.65;;;;;;;22.81;17.18;95603.00;4972102;28;20042;-68
2021/06/01 08:32:04;;;;;;;3.42;3.13;;;;;;;22.81;16.66;95593.72;4972170;28;20030;-67
2021/06/01 08:34:30;;;;;;;4.90;4.30;;;;;;;22.77;17.02;95591.75;4964471;28;20093;-67
2021/06/01 08:36:55;;;;;;;4.00;3.70;;;;;;;22.76;17.51;95593.00;4971527;28;20408;-68
2021/06/01 08:39:26;;;;;;;4.72;3.80;;;;;;;22.74;17.23;95591.84;4971506;28;20023;-68
2021/06/01 08:41:51;;;;;;;4.07;3.28;;;;;;;22.73;17.77;95593.84;4971514;28;20035;-68
2021/06/01 08:44:17;;;;;;;3.00;2.78;;;;;;;22.70;18.02;95588.31;4970876;28;20535;-68
2021/06/01 08:46:43;;;;;;;2.97;2.67;;;;;;;22.66;17.55;95585.53;4969460;28;20043;-67
2021/06/01 08:49:13;;;;;;;59.47;45.90;;;;;;;22.57;18.02;95593.78;4971368;28;20365;-70
2021/06/01 08:51:38;;;;;;;65.40;58.97;;;;;;;22.60;18.22;95578.81;4959448;28;20028;-69
2021/06/01 08:54:04;;;;;;;7.85;6.70;;;;;;;22.60;17.46;95590.13;4971621;28;20042;-68
2021/06/01 08:56:29;;;;;;;5.30;3.90;;;;;;;22.53;17.51;95587.44;4971896;28;20023;-68
2021/06/01 08:58:55;;;;;;;3.40;2.92;;;;;;;22.50;18.13;95585.47;4970722;28;20064;-68
2021/06/01 09:01:20;;;;;;;3.15;2.75;;;;;;;22.47;18.28;95575.06;4970200;28;20035;-68
2021/06/01 09:03:55;;;;;;;2.67;2.47;;;;;;;22.38;17.75;95584.09;4965083;28;20113;-68
2021/06/01 09:22:34;;;;;;;5.38;2.40;;;;;;;22.23;17.19;95578.72;4964472;28;20092;-67
2021/06/01 09:25:12;;;;;;;2.47;2.30;;;;;;;22.23;17.25;95575.06;4969764;28;20221;-67
2021/06/01 09:27:48;;;;;;;20.65;3.50;;;;;;;22.18;16.77;95576.38;4971003;28;20057;-68
2021/06/01 09:30:35;;;;;;;2.88;2.35;;;;;;;22.16;17.28;95578.81;4970430;28;20547;-68
2021/06/01 09:33:02;;;;;;;4.68;2.33;;;;;;;22.19;17.44;95565.88;4969900;28;20034;-68
2021/06/01 09:35:49;;;;;;;2.97;2.65;;;;;;;22.14;17.66;95572.81;4976075;28;20059;-68
2021/06/01 09:38:19;;;;;;;2.50;2.30;;;;;;;22.10;17.36;95564.41;4962480;28;20027;-68
2021/06/01 09:40:44;;;;;;;387.92;351.02;;;;;;;22.11;17.85;95568.03;4971705;28;20050;-69
2021/06/01 09:43:13;;;;;;;14.25;13.02;;;;;;;22.12;18.12;95554.72;4964058;28;20023;-69
2021/06/01 09:45:38;;;;;;;5.15;4.75;;;;;;;22.10;18.39;95558.75;4970821;28;20035;-69
2021/06/01 09:48:07;;;;;;;17.40;14.80;;;;;;;22.11;18.71;95559.56;4967083;28;20518;-69
2021/06/01 09:50:40;;;;;;;42.72;38.33;;;;;;;22.19;18.54;95551.75;4972065;28;20372;-69
2021/06/01 09:53:10;;;;;;;14.70;13.23;;;;;;;22.37;18.29;95559.88;4967335;28;20058;-69
2021/06/01 09:55:44;;;;;;;4.90;4.40;;;;;;;22.48;18.01;95560.50;4964973;28;20054;-69
2021/06/01 09:58:16;;;;;;;3.40;3.10;;;;;;;22.53;18.02;95565.63;4971886;28;20034;-68
2021/06/01 10:00:42;;;;;;;3.05;2.80;;;;;;;22.56;17.89;95556.28;4998660;28;20043;-69
2021/06/01 10:03:13;;;;;;;4.90;2.85;;;;;;;22.59;17.92;95555.41;4970477;28;20415;-70
2021/06/01 10:05:39;;;;;;;2.70;2.50;;;;;;;22.60;18.25;95561.88;4971331;28;20031;-70
2021/06/01 10:08:17;;;;;;;2.85;2.65;;;;;;;22.55;17.53;95556.72;4966506;28;20042;-70
2021/06/01 10:10:56;;;;;;;3.40;2.60;;;;;;;22.52;17.88;95557.56;4957941;28;20042;-70
2021/06/01 10:13:23;;;;;;;2.65;2.35;;;;;;;22.51;17.57;95551.13;4972162;28;20053;-70
2021/06/01 10:15:50;;;;;;;2.60;2.40;;;;;;;22.49;17.51;95550.78;4972472;28;20035;-69
2021/06/01 10:18:16;;;;;;;3.05;2.55;;;;;;;22.50;17.64;95543.88;4961749;28;20045;-69
2021/06/01 10:20:45;;;;;;;2.70;2.35;;;;;;;22.48;18.19;95539.91;4961937;28;20031;-69
2021/06/01 10:23:11;;;;;;;2.97;2.47;;;;;;;22.43;18.15;95538.41;4974620;28;20081;-69
2021/06/01 10:25:37;;;;;;;3.03;2.70;;;;;;;22.46;18.28;95536.72;4973553;28;20038;-69
2021/06/01 10:28:04;;;;;;;3.10;2.72;;;;;;;22.41;17.64;95544.47;4989494;28;20074;-69
2021/06/01 10:30:31;;;;;;;3.50;2.65;;;;;;;22.39;18.09;95535.63;4974909;28;20042;-69
2021/06/01 10:32:59;;;;;;;3.58;2.22;;;;;;;22.39;18.34;95546.16;4972730;28;20118;-69
2021/06/01 10:35:25;;;;;;;2.58;2.33;;;;;;;22.42;18.33;95537.63;4983770;28;20096;-69
2021/06/01 10:51:55;;;;;;;5.35;2.88;;;;;;;22.32;17.82;95527.31;4972876;28;20038;-69
2021/06/01 10:54:57;;;;;;;5.75;2.90;;;;;;;22.29;17.48;95527.38;4970882;28;20054;-68
2021/06/01 10:57:22;;;;;;;2.80;2.50;;;;;;;22.31;17.99;95527.75;4979502;28;20080;-68
2021/06/01 11:02:22;;;;;;;4.72;2.88;;;;;;;22.34;17.90;95526.88;4970981;28;20093;-68
2021/06/01 11:05:08;;;;;;;2.50;2.30;;;;;;;22.27;18.13;95530.63;4968878;28;20031;-68
2021/06/01 11:07:52;;;;;;;3.35;2.50;;;;;;;22.24;18.27;95528.66;4968037;28;20035;-68
2021/06/01 11:10:38;;;;;;;3.30;2.80;;;;;;;22.23;18.22;95524.25;4969759;28;20062;-68
2021/06/01 11:13:04;;;;;;;3.60;2.60;;;;;;;22.27;17.91;95522.16;4972802;28;20051;-68
2021/06/01 11:15:31;;;;;;;5.35;2.50;;;;;;;22.26;17.99;95521.38;4968840;28;20477;-68
2021/06/01 11:18:18;;;;;;;3.58;2.22;;;;;;;22.22;18.10;95517.00;4993229;28;20510;-68
2021/06/01 11:21:00;;;;;;;3.20;2.50;;;;;;;22.21;18.08;95512.59;4968825;28;20062;-69
2021/06/01 11:23:39;;;;;;;3.50;2.22;;;;;;;22.24;18.20;95517.38;4978206;28;20132;-68
2021/06/01 11:34:37;;;;;;;2.85;2.65;;;;;;;22.29;18.04;95494.31;4966949;28;20723;-69
2021/06/01 11:37:09;;;;;;;2.47;2.30;;;;;;;22.30;17.90;95497.91;4979588;28;20034;-68
2021/06/01 11:39:58;;;;;;;3.80;2.60;;;;;;;22.29;17.95;95490.66;4963618;28;20413;-68
2021/06/01 11:45:08;;;;;;;2.58;2.38;;;;;;;22.29;18.02;95493.50;4968386;28;20081;-68
2021/06/01 11:47:54;;;;;;;2.63;2.42;;;;;;;22.22;18.47;95486.75;4971457;28;20430;-69
2021/06/01 11:53:03;;;;;;;3.50;2.70;;;;;;;22.24;18.18;95481.44;4972178;28;20097;-68
2021/06/01 11:55:29;;;;;;;5.15;2.40;;;;;;;22.25;18.22;95479.47;4968976;28;20046;-68
2021/06/01 12:04:09;;;;;;;4.43;2.63;;;;;;;22.22;18.48;95474.63;4967042;28;20054;-69
2021/06/01 12:12:41;;;;;;;2.50;2.30;;;;;;;22.23;18.05;95465.75;4967197;28;20610;-69
2021/06/01 12:17:59;;;;;;;2.97;2.65;;;;;;;22.25;18.23;95463.31;4963882;28;20417;-68
2021/06/01 12:20:24;;;;;;;3.50;2.97;;;;;;;22.30;18.52;95469.69;4965258;28;20027;-68
2021/06/01 12:22:50;;;;;;;2.72;2.53;;;;;;;22.33;18.51;95461.13;4966121;28;20045;-69
2021/06/01 12:25:17;;;;;;;3.97;2.55;;;;;;;22.32;18.01;95455.94;4965802;28;20039;-69
2021/06/01 12:27:54;;;;;;;2.97;2.63;;;;;;;22.34;18.59;95454.25;4952920;28;20491;-69
2021/06/01 12:33:08;;;;;;;2.80;2.58;;;;;;;22.35;18.16;95455.06;4956098;28;20153;-69
2021/06/01 13:20:04;;;;;;;4.00;3.60;;;;;;;22.37;18.65;95407.38;4955845;28;20085;-68
2021/06/01 13:22:46;;;;;;;4.68;3.20;;;;;;;22.39;18.82;95405.72;4978562;28;20035;-68
2021/06/01 13:40:56;;;;;;;4.38;2.90;;;;;;;22.30;19.16;95390.59;4962545;28;20541;-68
2021/06/01 13:56:19;;;;;;;3.75;3.25;;;;;;;22.45;19.01;95391.88;4968236;28;20030;-68
2021/06/01 13:59:03;;;;;;;151.35;135.98;;;;;;;22.47;18.33;95385.78;4970455;28;20187;-68
2021/06/01 14:10:12;;;;;;;6.13;3.55;;;;;;;22.42;18.63;95367.31;4961156;28;20045;-68
2021/06/01 15:49:42;;;;;;;3.22;2.70;;;;;;;22.29;19.12;95305.09;4969304;28;20086;-69
2021/06/01 16:11:35;;;;;;;3.30;3.00;;;;;;;22.38;19.56;95296.00;4962781;28;20096;-69
2021/06/01 16:41:37;;;;;;;3.28;3.00;;;;;;;22.50;19.54;95294.53;4961355;28;20042;-69
2021/06/01 16:41:52;;;;;;;2.75;2.55;;;;;;;22.61;19.03;95286.56;4959551;28;20062;-69